createdAt,value
2022-10-09T00:01:32.637Z,7.42
2022-10-09T00:03:59.896Z,7.38
2022-10-09T00:06:32.452Z,7.32
2022-10-09T00:09:00.550Z,7.28
2022-10-09T00:11:28.936Z,7.23
2022-10-09T00:13:56.750Z,7.19
2022-10-09T00:16:24.542Z,7.15
2022-10-09T00:18:52.392Z,7.13
2022-10-09T00:21:23.138Z,7.10
2022-10-09T00:23:51.101Z,7.05
2022-10-09T00:26:18.601Z,7.03
2022-10-09T00:28:46.282Z,6.99
2022-10-09T00:31:14.015Z,6.96
2022-10-09T00:33:40.508Z,6.94
2022-10-09T00:36:10.257Z,6.91
2022-10-09T00:38:36.850Z,6.88
2022-10-09T00:41:04.271Z,6.86
2022-10-09T00:43:41.558Z,6.84
2022-10-09T00:46:17.812Z,6.82
2022-10-09T00:48:44.444Z,6.79
2022-10-09T00:51:10.872Z,6.77
2022-10-09T00:53:37.366Z,6.74
2022-10-09T00:56:04.145Z,6.71
2022-10-09T00:58:30.589Z,6.69
2022-10-09T01:00:57.138Z,6.66
2022-10-09T01:03:23.550Z,6.65
2022-10-09T01:06:14.318Z,6.65
2022-10-09T01:09:01.547Z,6.64
2022-10-09T01:11:34.056Z,6.62
2022-10-09T01:14:09.614Z,6.61
2022-10-09T01:16:41.422Z,6.60
2022-10-09T01:19:29.511Z,6.58
2022-10-09T01:22:13.572Z,6.57
2022-10-09T01:24:54.385Z,6.56
2022-10-09T01:27:25.993Z,6.56
2022-10-09T01:29:56.921Z,6.56
2022-10-09T01:32:28.292Z,6.56
2022-10-09T01:34:56.081Z,6.57
2022-10-09T01:37:23.616Z,6.58
2022-10-09T01:39:51.396Z,6.59
2022-10-09T01:42:20.437Z,6.61
2022-10-09T01:44:46.925Z,6.60
2022-10-09T01:47:16.736Z,6.60
2022-10-09T01:49:52.751Z,6.60
2022-10-09T01:52:24.595Z,6.60
2022-10-09T01:55:02.727Z,6.60
2022-10-09T01:57:44.887Z,6.60
2022-10-09T02:00:13.786Z,6.59
2022-10-09T02:02:42.737Z,6.58
2022-10-09T02:05:12.597Z,6.55
2022-10-09T02:07:39.263Z,6.52
2022-10-09T02:10:08.201Z,6.50
2022-10-09T02:12:38.980Z,6.47
2022-10-09T02:15:06.368Z,6.45
2022-10-09T02:17:36.818Z,6.43
2022-10-09T02:20:12.217Z,6.40
2022-10-09T02:22:38.655Z,6.38
2022-10-09T02:25:06.621Z,6.36
2022-10-09T02:27:33.929Z,6.34
2022-10-09T02:30:01.194Z,6.33
2022-10-09T02:32:28.805Z,6.32
2022-10-09T02:34:55.277Z,6.31
2022-10-09T02:37:21.664Z,6.30
2022-10-09T02:39:49.306Z,6.29
2022-10-09T02:42:15.993Z,6.27
2022-10-09T02:44:42.559Z,6.25
2022-10-09T02:47:09.083Z,6.23
2022-10-09T02:49:35.497Z,6.21
2022-10-09T02:52:01.924Z,6.18
2022-10-09T02:54:28.334Z,6.17
2022-10-09T02:56:54.798Z,6.16
2022-10-09T02:59:21.244Z,6.14
2022-10-09T03:02:08.417Z,6.12
2022-10-09T03:04:34.892Z,6.11
2022-10-09T03:07:01.263Z,6.10
2022-10-09T03:09:33.396Z,6.10
2022-10-09T03:12:00.204Z,6.10
2022-10-09T03:14:26.602Z,6.10
2022-10-09T03:16:52.973Z,6.10
2022-10-09T03:19:19.345Z,6.10
2022-10-09T03:21:45.742Z,6.11
2022-10-09T03:24:12.373Z,6.12
2022-10-09T03:26:38.887Z,6.13
2022-10-09T03:29:05.271Z,6.16
2022-10-09T03:31:52.028Z,6.17
2022-10-09T03:34:18.038Z,6.17
2022-10-09T03:36:44.458Z,6.17
2022-10-09T03:39:10.853Z,6.17
2022-10-09T03:41:37.239Z,6.17
2022-10-09T03:44:03.724Z,6.17
2022-10-09T03:46:30.232Z,6.18
2022-10-09T03:48:56.697Z,6.18
2022-10-09T03:51:23.124Z,6.17
2022-10-09T03:53:49.705Z,6.17
2022-10-09T03:56:16.064Z,6.18
2022-10-09T03:58:42.501Z,6.19
2022-10-09T04:01:09.125Z,6.20
2022-10-09T04:03:35.639Z,6.21
2022-10-09T04:06:02.040Z,6.24
2022-10-09T04:08:28.450Z,6.25
2022-10-09T04:13:30.008Z,6.28
2022-10-09T04:15:56.679Z,6.28
2022-10-09T04:18:23.487Z,6.29
2022-10-09T04:20:51.361Z,6.30
2022-10-09T04:23:19.267Z,6.30
2022-10-09T04:25:45.912Z,6.29
2022-10-09T04:28:12.804Z,6.28
2022-10-09T04:30:39.728Z,6.28
2022-10-09T04:33:11.825Z,6.28
2022-10-09T04:35:46.654Z,6.28
2022-10-09T04:38:13.030Z,6.28
2022-10-09T04:40:39.456Z,6.27
2022-10-09T04:43:06.264Z,6.26
2022-10-09T04:45:33.024Z,6.27
2022-10-09T04:47:59.644Z,6.26
2022-10-09T04:50:26.007Z,6.26
2022-10-09T04:52:52.441Z,6.25
2022-10-09T04:55:18.889Z,6.24
2022-10-09T04:57:45.373Z,6.24
2022-10-09T05:00:12.735Z,6.24
2022-10-09T05:02:39.316Z,6.23
2022-10-09T05:05:05.963Z,6.22
2022-10-09T05:07:32.374Z,6.21
2022-10-09T05:09:58.766Z,6.20
2022-10-09T05:12:25.149Z,6.19
2022-10-09T05:14:54.274Z,6.19
2022-10-09T05:17:23.270Z,6.19
2022-10-09T05:19:50.110Z,6.19
2022-10-09T05:22:16.493Z,6.20
2022-10-09T05:24:42.859Z,6.22
2022-10-09T05:27:09.254Z,6.22
2022-10-09T05:29:36.051Z,6.20
2022-10-09T05:32:02.981Z,6.18
2022-10-09T05:34:29.392Z,6.17
2022-10-09T05:36:55.789Z,6.16
2022-10-09T05:39:22.402Z,6.15
2022-10-09T05:41:48.805Z,6.15
2022-10-09T05:44:15.216Z,6.16
2022-10-09T05:46:41.643Z,6.17
2022-10-09T05:49:10.367Z,6.17
2022-10-09T05:51:38.922Z,6.19
2022-10-09T05:54:06.728Z,6.21
2022-10-09T05:56:35.918Z,6.24
2022-10-09T05:59:07.972Z,6.27
2022-10-09T06:01:37.517Z,6.31
2022-10-09T06:04:05.070Z,6.36
2022-10-09T06:06:33.664Z,6.41
2022-10-09T06:09:00.073Z,6.45
2022-10-09T06:11:31.560Z,6.51
2022-10-09T06:14:00.029Z,6.58
2022-10-09T06:16:29.151Z,6.65
2022-10-09T06:18:56.209Z,6.71
2022-10-09T06:21:23.639Z,6.76
2022-10-09T06:23:54.321Z,6.81
2022-10-09T06:26:21.679Z,6.88
2022-10-09T06:28:48.579Z,6.96
2022-10-09T06:31:21.298Z,7.06
2022-10-09T06:33:49.472Z,7.15
2022-10-09T06:36:18.595Z,7.24
2022-10-09T06:38:45.614Z,7.37
2022-10-09T06:41:21.538Z,7.46
2022-10-09T06:43:51.807Z,7.55
2022-10-09T06:46:20.253Z,7.63
2022-10-09T06:48:47.101Z,7.73
2022-10-09T06:51:19.212Z,7.82
2022-10-09T06:53:51.690Z,7.90
2022-10-09T06:56:20.025Z,8.00
2022-10-09T06:58:47.004Z,8.06
2022-10-09T07:01:24.256Z,8.10
2022-10-09T07:04:14.830Z,8.13
2022-10-09T07:06:47.613Z,8.18
2022-10-09T07:09:16.337Z,8.24
2022-10-09T07:11:45.659Z,8.30
2022-10-09T07:14:15.838Z,8.36
2022-10-09T07:16:45.735Z,8.49
2022-10-09T07:19:15.435Z,8.61
2022-10-09T07:21:57.049Z,8.71
2022-10-09T07:24:27.727Z,8.76
2022-10-09T07:27:05.517Z,8.85
2022-10-09T07:29:31.906Z,8.93
2022-10-09T07:31:58.306Z,9.01
2022-10-09T07:34:24.908Z,9.03
2022-10-09T07:36:51.432Z,9.06
2022-10-09T07:39:20.767Z,9.13
2022-10-09T07:41:49.980Z,9.21
2022-10-09T07:44:16.476Z,9.30
2022-10-09T07:46:43.413Z,9.39
2022-10-09T07:49:10.062Z,9.50
2022-10-09T07:51:39.488Z,9.62
2022-10-09T07:54:06.011Z,9.73
2022-10-09T07:56:34.990Z,9.82
2022-10-09T07:59:04.228Z,9.90
2022-10-09T08:01:32.028Z,9.99
2022-10-09T08:03:59.072Z,10.09
2022-10-09T08:06:26.392Z,10.18
2022-10-09T08:08:54.637Z,10.26
2022-10-09T08:11:23.717Z,10.36
2022-10-09T08:13:51.092Z,10.48
2022-10-09T08:16:19.315Z,10.55
2022-10-09T08:18:49.073Z,10.65
2022-10-09T08:21:18.190Z,10.78
2022-10-09T08:23:45.516Z,10.92
2022-10-09T08:26:17.362Z,11.09
2022-10-09T08:28:44.005Z,11.25
2022-10-09T08:31:15.314Z,11.44
2022-10-09T08:33:42.571Z,11.66
2022-10-09T08:36:11.809Z,11.86
2022-10-09T08:38:47.270Z,11.99
2022-10-09T08:41:23.300Z,12.11
2022-10-09T08:44:12.208Z,12.20
2022-10-09T08:47:06.573Z,12.29
2022-10-09T08:49:40.592Z,12.44
2022-10-09T08:52:33.215Z,12.58
2022-10-09T08:55:06.322Z,12.74
2022-10-09T08:57:34.398Z,12.86
2022-10-09T09:00:00.756Z,12.99
2022-10-09T09:03:01.140Z,13.10
2022-10-09T09:05:43.993Z,13.22
2022-10-09T09:08:42.169Z,13.32
2022-10-09T09:11:33.407Z,13.40
2022-10-09T09:14:28.128Z,13.49
2022-10-09T09:17:26.819Z,13.55
2022-10-09T09:20:16.257Z,13.60
2022-10-09T09:22:48.808Z,13.71
2022-10-09T09:25:28.627Z,13.83
2022-10-09T09:28:00.303Z,13.97
2022-10-09T09:30:42.964Z,14.06
2022-10-09T09:33:44.384Z,14.19
2022-10-09T09:36:20.674Z,14.33
2022-10-09T09:39:26.014Z,14.42
2022-10-09T09:41:35.380Z,14.56
2022-10-09T09:44:01.739Z,14.62
2022-10-09T09:46:30.441Z,14.66
2022-10-09T09:48:56.846Z,14.77
2022-10-09T09:51:30.041Z,14.87
2022-10-09T09:54:04.343Z,14.95
2022-10-09T09:56:59.881Z,15.02
2022-10-09T09:59:37.768Z,15.06
2022-10-09T10:02:26.218Z,15.19
2022-10-09T10:04:54.284Z,15.32
2022-10-09T10:07:32.543Z,15.36
2022-10-09T10:10:24.960Z,15.46
2022-10-09T10:12:52.476Z,15.60
2022-10-09T10:15:30.953Z,15.76
2022-10-09T10:18:05.030Z,15.87
2022-10-09T10:20:41.328Z,15.98
2022-10-09T10:23:34.852Z,16.04
2022-10-09T10:26:39.725Z,16.19
2022-10-09T10:29:25.595Z,16.31
2022-10-09T10:32:37.170Z,16.38
2022-10-09T10:35:14.640Z,16.38
2022-10-09T10:37:50.072Z,16.41
2022-10-09T10:40:22.339Z,16.55
2022-10-09T10:43:03.931Z,16.71
2022-10-09T10:45:52.436Z,16.78
2022-10-09T10:48:26.286Z,16.70
2022-10-09T10:51:27.961Z,16.70
2022-10-09T10:54:16.319Z,16.82
2022-10-09T10:56:48.680Z,16.87
2022-10-09T10:59:49.397Z,16.98
2022-10-09T11:02:48.904Z,17.10
2022-10-09T11:05:27.471Z,17.14
2022-10-09T11:08:09.990Z,17.25
2022-10-09T11:10:59.357Z,17.28
2022-10-09T11:13:29.623Z,17.29
2022-10-09T11:16:11.314Z,17.28
2022-10-09T11:19:03.526Z,17.33
2022-10-09T11:21:51.185Z,17.51
2022-10-09T11:24:47.584Z,17.64
2022-10-09T11:27:29.838Z,17.97
2022-10-09T11:30:00.708Z,18.16
2022-10-09T11:32:27.168Z,18.23
2022-10-09T11:35:20.514Z,18.18
2022-10-09T11:37:56.192Z,18.23
2022-10-09T11:40:49.248Z,18.64
2022-10-09T11:43:24.712Z,18.83
2022-10-09T11:46:12.545Z,19.22
2022-10-09T11:49:00.705Z,19.78
2022-10-09T11:51:38.131Z,20.31
2022-10-09T11:54:06.320Z,20.68
2022-10-09T11:56:32.788Z,20.89
2022-10-09T11:59:05.554Z,20.75
2022-10-09T12:01:37.872Z,20.95
2022-10-09T12:04:50.169Z,21.71
2022-10-09T12:07:25.337Z,22.76
2022-10-09T12:09:59.730Z,23.53
2022-10-09T12:12:26.460Z,24.38
2022-10-09T12:14:53.438Z,25.08
2022-10-09T12:17:22.889Z,26.22
2022-10-09T12:20:00.186Z,27.28
2022-10-09T12:22:33.729Z,28.00
2022-10-09T12:25:07.419Z,28.63
2022-10-09T12:27:37.942Z,29.32
2022-10-09T12:30:14.347Z,29.87
2022-10-09T12:32:47.436Z,30.58
2022-10-09T12:35:25.031Z,31.18
2022-10-09T12:37:52.311Z,31.60
2022-10-09T12:40:25.609Z,31.74
2022-10-09T12:42:53.916Z,32.05
2022-10-09T12:45:26.399Z,32.25
2022-10-09T12:47:54.268Z,32.71
2022-10-09T12:50:28.009Z,32.96
2022-10-09T12:52:58.782Z,33.23
2022-10-09T12:55:43.020Z,33.32
2022-10-09T12:58:28.498Z,33.29
2022-10-09T13:00:58.728Z,33.40
2022-10-09T13:03:36.589Z,33.17
2022-10-09T13:06:05.391Z,32.86
2022-10-09T13:08:39.033Z,32.34
2022-10-09T13:11:17.983Z,32.23
2022-10-09T13:13:49.694Z,32.43
2022-10-09T13:16:16.371Z,32.39
2022-10-09T13:18:43.392Z,32.41
2022-10-09T13:21:34.266Z,32.94
2022-10-09T13:24:09.449Z,33.69
2022-10-09T13:26:36.079Z,33.63
2022-10-09T13:29:03.633Z,34.07
2022-10-09T13:31:30.232Z,34.55
2022-10-09T13:33:56.631Z,35.07
2022-10-09T13:36:23.001Z,35.38
2022-10-09T13:38:49.408Z,35.74
2022-10-09T13:41:23.398Z,36.04
2022-10-09T13:43:51.376Z,36.23
2022-10-09T13:46:17.824Z,36.40
2022-10-09T13:48:44.628Z,36.66
2022-10-09T13:51:11.728Z,36.90
2022-10-09T13:53:38.306Z,36.97
2022-10-09T13:56:07.639Z,37.05
2022-10-09T13:58:34.075Z,36.94
2022-10-09T14:01:00.511Z,37.02
2022-10-09T14:03:27.053Z,36.78
2022-10-09T14:06:01.489Z,36.69
2022-10-09T14:08:27.967Z,36.34
2022-10-09T14:10:54.709Z,36.23
2022-10-09T14:13:21.769Z,36.08
2022-10-09T14:15:51.515Z,35.90
2022-10-09T14:18:17.880Z,35.50
2022-10-09T14:20:45.419Z,35.09
2022-10-09T14:23:13.324Z,34.94
2022-10-09T14:25:41.826Z,34.82
2022-10-09T14:28:08.260Z,34.68
2022-10-09T14:30:40.886Z,34.72
2022-10-09T14:33:07.277Z,34.75
2022-10-09T14:35:33.669Z,34.87
2022-10-09T14:38:00.457Z,35.04
2022-10-09T14:40:26.857Z,35.23
2022-10-09T14:42:53.305Z,35.54
2022-10-09T14:45:19.792Z,35.74
2022-10-09T14:47:46.154Z,35.76
2022-10-09T14:50:12.567Z,35.73
2022-10-09T14:52:38.948Z,35.38
2022-10-09T14:55:05.617Z,34.94
2022-10-09T14:57:35.469Z,34.58
2022-10-09T15:00:03.839Z,34.40
2022-10-09T15:02:30.665Z,34.09
2022-10-09T15:04:57.027Z,33.62
2022-10-09T15:07:23.395Z,33.46
2022-10-09T15:09:49.955Z,33.36
2022-10-09T15:12:16.310Z,33.16
2022-10-09T15:14:42.768Z,32.94
2022-10-09T15:17:09.515Z,32.64
2022-10-09T15:19:35.922Z,32.38
2022-10-09T15:22:02.306Z,32.29
2022-10-09T15:24:28.693Z,32.22
2022-10-09T15:26:55.070Z,32.08
2022-10-09T15:29:21.592Z,32.10
2022-10-09T15:31:50.704Z,32.21
2022-10-09T15:34:19.049Z,32.30
2022-10-09T15:36:46.503Z,32.27
2022-10-09T15:39:13.831Z,32.24
2022-10-09T15:41:41.951Z,32.19
2022-10-09T15:44:19.442Z,32.05
2022-10-09T15:46:47.646Z,31.85
2022-10-09T15:49:14.250Z,31.72
2022-10-09T15:51:40.986Z,31.59
2022-10-09T15:54:07.572Z,31.40
2022-10-09T15:56:38.926Z,31.13
2022-10-09T15:59:06.412Z,30.74
2022-10-09T16:01:32.892Z,30.37
2022-10-09T16:03:59.376Z,30.00
2022-10-09T16:06:25.807Z,29.59
2022-10-09T16:08:55.983Z,29.19
2022-10-09T16:11:26.439Z,28.66
2022-10-09T16:13:54.013Z,27.76
2022-10-09T16:16:23.461Z,26.98
2022-10-09T16:18:50.236Z,26.50
2022-10-09T16:21:28.792Z,26.17
2022-10-09T16:23:58.862Z,25.69
2022-10-09T16:26:28.161Z,25.02
2022-10-09T16:28:54.693Z,24.20
2022-10-09T16:31:23.631Z,23.19
2022-10-09T16:33:50.526Z,22.20
2022-10-09T16:36:17.673Z,21.38
2022-10-09T16:38:45.046Z,20.68
2022-10-09T16:41:14.958Z,20.01
2022-10-09T16:43:41.318Z,19.40
2022-10-09T16:46:17.809Z,18.88
2022-10-09T16:48:44.606Z,18.39
2022-10-09T16:51:13.815Z,17.93
2022-10-09T16:53:41.575Z,17.48
2022-10-09T16:56:15.202Z,17.09
2022-10-09T16:58:43.196Z,16.72
2022-10-09T17:01:11.268Z,16.38
2022-10-09T17:03:42.085Z,16.04
2022-10-09T17:06:13.693Z,15.73
2022-10-09T17:08:40.163Z,15.43
2022-10-09T17:11:09.120Z,15.17
2022-10-09T17:13:36.269Z,14.91
2022-10-09T17:16:17.111Z,14.70
2022-10-09T17:18:44.576Z,14.47
2022-10-09T17:21:12.519Z,14.25
2022-10-09T17:23:39.392Z,14.04
2022-10-09T17:26:14.618Z,13.84
2022-10-09T17:28:41.712Z,13.62
2022-10-09T17:31:11.230Z,13.41
2022-10-09T17:33:41.156Z,13.24
2022-10-09T17:36:11.637Z,13.08
2022-10-09T17:38:38.035Z,12.93
2022-10-09T17:41:06.321Z,12.76
2022-10-09T17:43:33.197Z,12.60
2022-10-09T17:46:01.130Z,12.44
2022-10-09T17:48:30.335Z,12.29
2022-10-09T17:50:57.880Z,12.13
2022-10-09T17:53:25.245Z,11.97
2022-10-09T17:55:57.554Z,11.79
2022-10-09T17:58:26.872Z,11.64
2022-10-09T18:00:53.289Z,11.49
2022-10-09T18:03:20.327Z,11.37
2022-10-09T18:05:49.148Z,11.26
2022-10-09T18:08:18.521Z,11.16
2022-10-09T18:10:45.712Z,11.04
2022-10-09T18:13:12.337Z,10.96
2022-10-09T18:15:40.529Z,10.86
2022-10-09T18:18:07.729Z,10.77
2022-10-09T18:20:35.140Z,10.70
2022-10-09T18:23:01.640Z,10.64
2022-10-09T18:25:28.019Z,10.59
2022-10-09T18:27:54.436Z,10.53
2022-10-09T18:30:21.110Z,10.49
2022-10-09T18:32:48.681Z,10.44
2022-10-09T18:35:15.298Z,10.39
2022-10-09T18:37:41.738Z,10.33
2022-10-09T18:40:09.047Z,10.28
2022-10-09T18:42:35.976Z,10.23
2022-10-09T18:45:03.266Z,10.17
2022-10-09T18:47:34.035Z,10.12
2022-10-09T18:50:05.739Z,10.07
2022-10-09T18:52:32.416Z,10.02
2022-10-09T18:54:59.430Z,9.98
2022-10-09T18:57:26.893Z,9.94
2022-10-09T18:59:55.876Z,9.90
2022-10-09T19:02:26.291Z,9.84
2022-10-09T19:04:54.004Z,9.79
2022-10-09T19:07:27.921Z,9.77
2022-10-09T19:09:57.292Z,9.75
2022-10-09T19:12:27.371Z,9.76
2022-10-09T19:14:54.658Z,9.76
2022-10-09T19:17:23.496Z,9.77
2022-10-09T19:20:00.453Z,9.78
2022-10-09T19:22:27.002Z,9.78
2022-10-09T19:24:53.487Z,9.78
2022-10-09T19:27:22.484Z,9.77
2022-10-09T19:29:52.161Z,9.76
2022-10-09T19:32:22.939Z,9.74
2022-10-09T19:34:50.208Z,9.71
2022-10-09T19:37:16.920Z,9.68
2022-10-09T19:39:48.250Z,9.67
2022-10-09T19:42:16.439Z,9.66
2022-10-09T19:44:46.654Z,9.64
2022-10-09T19:47:14.951Z,9.64
2022-10-09T19:49:41.779Z,9.64
2022-10-09T19:52:08.333Z,9.67
2022-10-09T19:54:36.021Z,9.70
2022-10-09T19:57:02.600Z,9.72
2022-10-09T19:59:29.975Z,9.73
2022-10-09T20:01:57.615Z,9.74
2022-10-09T20:04:24.444Z,9.76
2022-10-09T20:06:51.026Z,9.78
2022-10-09T20:09:17.529Z,9.79
2022-10-09T20:11:44.067Z,9.77
2022-10-09T20:14:10.939Z,9.75
2022-10-09T20:16:38.363Z,9.72
2022-10-09T20:19:05.306Z,9.69
2022-10-09T20:21:33.061Z,9.67
2022-10-09T20:24:01.079Z,9.65
2022-10-09T20:26:28.226Z,9.62
2022-10-09T20:28:54.976Z,9.58
2022-10-09T20:31:24.060Z,9.53
2022-10-09T20:33:51.715Z,9.50
2022-10-09T20:36:21.584Z,9.47
2022-10-09T20:38:48.626Z,9.45
2022-10-09T20:41:15.183Z,9.42
2022-10-09T20:43:41.577Z,9.39
2022-10-09T20:46:10.129Z,9.37
2022-10-09T20:48:36.931Z,9.36
2022-10-09T20:51:03.746Z,9.34
2022-10-09T20:53:30.440Z,9.32
2022-10-09T20:56:01.599Z,9.28
2022-10-09T20:58:28.739Z,9.25
2022-10-09T21:00:55.562Z,9.21
2022-10-09T21:03:22.233Z,9.18
2022-10-09T21:05:48.772Z,9.17
2022-10-09T21:08:15.615Z,9.16
2022-10-09T21:10:46.788Z,9.14
2022-10-09T21:13:13.751Z,9.12
2022-10-09T21:15:43.659Z,9.13
2022-10-09T21:18:10.953Z,9.16
2022-10-09T21:20:43.003Z,9.15
2022-10-09T21:23:11.035Z,9.14
2022-10-09T21:25:37.833Z,9.12
2022-10-09T21:28:05.804Z,9.10
2022-10-09T21:30:41.294Z,9.07
2022-10-09T21:33:08.790Z,9.05
2022-10-09T21:35:42.531Z,9.03
2022-10-09T21:38:15.241Z,9.01
2022-10-09T21:40:54.202Z,8.98
2022-10-09T21:43:20.608Z,8.94
2022-10-09T21:45:52.872Z,8.91
2022-10-09T21:48:19.638Z,8.86
2022-10-09T21:50:46.172Z,8.79
2022-10-09T21:53:13.293Z,8.74
2022-10-09T21:55:39.931Z,8.68
2022-10-09T21:58:07.495Z,8.66
2022-10-09T22:00:34.540Z,8.63
2022-10-09T22:03:01.201Z,8.63
2022-10-09T22:05:28.019Z,8.62
2022-10-09T22:07:54.600Z,8.61
2022-10-09T22:10:21.014Z,8.58
2022-10-09T22:12:47.715Z,8.53
2022-10-09T22:15:14.455Z,8.48
2022-10-09T22:17:42.491Z,8.44
2022-10-09T22:20:09.317Z,8.41
2022-10-09T22:22:35.751Z,8.36
2022-10-09T22:25:02.308Z,8.32
2022-10-09T22:27:29.030Z,8.28
2022-10-09T22:29:55.562Z,8.25
2022-10-09T22:32:22.047Z,8.21
2022-10-09T22:34:51.242Z,8.13
2022-10-09T22:37:18.246Z,8.07
2022-10-09T22:39:44.704Z,8.02
2022-10-09T22:42:11.222Z,7.98
2022-10-09T22:44:37.755Z,7.94
2022-10-09T22:47:04.236Z,7.92
2022-10-09T22:49:30.650Z,7.91
2022-10-09T22:51:57.163Z,7.90
2022-10-09T22:54:23.689Z,7.87
2022-10-09T22:56:50.096Z,7.86
2022-10-09T22:59:18.126Z,7.86
2022-10-09T23:01:56.416Z,7.84
2022-10-09T23:04:23.962Z,7.82
2022-10-09T23:06:53.671Z,7.81
2022-10-09T23:09:21.724Z,7.79
2022-10-09T23:11:48.831Z,7.76
2022-10-09T23:14:15.542Z,7.73
2022-10-09T23:16:42.962Z,7.70
2022-10-09T23:19:10.294Z,7.66
2022-10-09T23:21:39.118Z,7.61
2022-10-09T23:24:07.339Z,7.55
2022-10-09T23:26:35.573Z,7.48
2022-10-09T23:29:08.072Z,7.43
2022-10-09T23:31:35.889Z,7.38
2022-10-09T23:34:03.910Z,7.33
2022-10-09T23:36:30.658Z,7.26
2022-10-09T23:38:58.251Z,7.18
2022-10-09T23:41:27.498Z,7.12
2022-10-09T23:43:55.150Z,7.06
2022-10-09T23:46:27.611Z,7.00
2022-10-09T23:48:54.858Z,6.96
2022-10-09T23:51:23.244Z,6.92
2022-10-09T23:53:50.103Z,6.89
2022-10-09T23:56:19.544Z,6.86
2022-10-09T23:58:46.983Z,6.82
